sensor_id;sensor_type;location;lat;lon;timestamp;P1;durP1;ratioP1;P2;durP2;ratioP2
70049;SDS011;57391;51.306;22.680;2022-10-26T00:01:10;12.50;;;7.60;;
70049;SDS011;57391;51.306;22.680;2022-10-26T00:03:40;12.00;;;7.60;;
70049;SDS011;57391;51.306;22.680;2022-10-26T00:06:20;12.60;;;7.40;;
70049;SDS011;57391;51.306;22.680;2022-10-26T00:08:51;13.10;;;7.50;;
70049;SDS011;57391;51.306;22.680;2022-10-26T00:11:18;14.10;;;7.60;;
70049;SDS011;57391;51.306;22.680;2022-10-26T00:13:46;15.40;;;7.50;;
70049;SDS011;57391;51.306;22.680;2022-10-26T00:16:20;12.00;;;7.50;;
70049;SDS011;57391;51.306;22.680;2022-10-26T00:18:53;12.30;;;7.60;;
70049;SDS011;57391;51.306;22.680;2022-10-26T00:21:21;13.00;;;7.40;;
70049;SDS011;57391;51.306;22.680;2022-10-26T00:23:49;13.30;;;7.20;;
70049;SDS011;57391;51.306;22.680;2022-10-26T00:26:16;13.50;;;7.30;;
70049;SDS011;57391;51.306;22.680;2022-10-26T00:28:43;14.80;;;7.40;;
70049;SDS011;57391;51.306;22.680;2022-10-26T00:31:12;14.30;;;7.70;;
70049;SDS011;57391;51.306;22.680;2022-10-26T00:33:41;11.20;;;7.00;;
70049;SDS011;57391;51.306;22.680;2022-10-26T00:36:09;12.30;;;7.40;;
70049;SDS011;57391;51.306;22.680;2022-10-26T00:38:37;11.30;;;7.20;;
70049;SDS011;57391;51.306;22.680;2022-10-26T00:41:04;14.20;;;7.20;;
70049;SDS011;57391;51.306;22.680;2022-10-26T00:43:33;13.50;;;7.00;;
70049;SDS011;57391;51.306;22.680;2022-10-26T00:46:06;11.90;;;7.30;;
70049;SDS011;57391;51.306;22.680;2022-10-26T00:48:41;13.20;;;7.80;;
70049;SDS011;57391;51.306;22.680;2022-10-26T00:51:21;14.00;;;7.20;;
70049;SDS011;57391;51.306;22.680;2022-10-26T00:53:50;13.20;;;7.30;;
70049;SDS011;57391;51.306;22.680;2022-10-26T00:56:18;11.30;;;7.30;;
70049;SDS011;57391;51.306;22.680;2022-10-26T00:58:45;16.50;;;8.20;;
70049;SDS011;57391;51.306;22.680;2022-10-26T01:01:12;13.60;;;7.70;;
70049;SDS011;57391;51.306;22.680;2022-10-26T01:03:41;13.30;;;7.30;;
70049;SDS011;57391;51.306;22.680;2022-10-26T01:06:09;13.20;;;8.00;;
70049;SDS011;57391;51.306;22.680;2022-10-26T01:08:38;11.60;;;7.60;;
70049;SDS011;57391;51.306;22.680;2022-10-26T01:11:07;14.40;;;7.80;;
70049;SDS011;57391;51.306;22.680;2022-10-26T01:13:34;16.00;;;8.70;;
70049;SDS011;57391;51.306;22.680;2022-10-26T01:27:22;13.90;;;8.20;;
70049;SDS011;57391;51.306;22.680;2022-10-26T01:32:33;12.50;;;8.00;;
70049;SDS011;57391;51.306;22.680;2022-10-26T01:35:13;13.80;;;8.40;;
70049;SDS011;57391;51.306;22.680;2022-10-26T01:37:50;16.90;;;9.10;;
70049;SDS011;57391;51.306;22.680;2022-10-26T01:40:45;14.00;;;8.10;;
70049;SDS011;57391;51.306;22.680;2022-10-26T01:43:21;13.80;;;8.10;;
70049;SDS011;57391;51.306;22.680;2022-10-26T01:45:51;13.00;;;7.70;;
70049;SDS011;57391;51.306;22.680;2022-10-26T01:48:21;14.40;;;8.30;;
70049;SDS011;57391;51.306;22.680;2022-10-26T01:50:52;13.50;;;8.30;;
70049;SDS011;57391;51.306;22.680;2022-10-26T01:53:21;18.50;;;9.00;;
70049;SDS011;57391;51.306;22.680;2022-10-26T01:55:52;18.00;;;9.60;;
70049;SDS011;57391;51.306;22.680;2022-10-26T02:04:54;19.30;;;10.70;;
70049;SDS011;57391;51.306;22.680;2022-10-26T02:11:00;18.30;;;9.40;;
70049;SDS011;57391;51.306;22.680;2022-10-26T02:22:52;14.30;;;8.70;;
70049;SDS011;57391;51.306;22.680;2022-10-26T02:25:24;13.60;;;7.20;;
70049;SDS011;57391;51.306;22.680;2022-10-26T02:28:00;15.60;;;8.60;;
70049;SDS011;57391;51.306;22.680;2022-10-26T02:30:33;13.60;;;8.30;;
70049;SDS011;57391;51.306;22.680;2022-10-26T02:33:03;13.70;;;8.70;;
70049;SDS011;57391;51.306;22.680;2022-10-26T02:35:35;17.30;;;8.40;;
70049;SDS011;57391;51.306;22.680;2022-10-26T02:38:06;14.40;;;8.60;;
70049;SDS011;57391;51.306;22.680;2022-10-26T02:40:37;13.70;;;8.50;;
70049;SDS011;57391;51.306;22.680;2022-10-26T02:43:09;13.70;;;8.70;;
70049;SDS011;57391;51.306;22.680;2022-10-26T02:45:50;15.70;;;9.60;;
70049;SDS011;57391;51.306;22.680;2022-10-26T02:48:21;16.10;;;9.20;;
70049;SDS011;57391;51.306;22.680;2022-10-26T02:53:56;14.60;;;9.30;;
70049;SDS011;57391;51.306;22.680;2022-10-26T02:56:33;14.90;;;9.30;;
70049;SDS011;57391;51.306;22.680;2022-10-26T02:59:08;14.70;;;9.00;;
70049;SDS011;57391;51.306;22.680;2022-10-26T03:01:37;15.30;;;8.70;;
70049;SDS011;57391;51.306;22.680;2022-10-26T03:04:05;16.50;;;9.40;;
70049;SDS011;57391;51.306;22.680;2022-10-26T03:06:33;14.60;;;9.40;;
70049;SDS011;57391;51.306;22.680;2022-10-26T03:09:00;17.30;;;9.00;;
70049;SDS011;57391;51.306;22.680;2022-10-26T03:11:27;16.70;;;9.00;;
70049;SDS011;57391;51.306;22.680;2022-10-26T03:13:54;16.70;;;9.10;;
70049;SDS011;57391;51.306;22.680;2022-10-26T03:16:21;15.40;;;8.60;;
70049;SDS011;57391;51.306;22.680;2022-10-26T03:18:48;16.20;;;9.20;;
70049;SDS011;57391;51.306;22.680;2022-10-26T03:21:15;13.80;;;8.80;;
70049;SDS011;57391;51.306;22.680;2022-10-26T03:23:41;13.10;;;8.20;;
70049;SDS011;57391;51.306;22.680;2022-10-26T03:26:09;14.70;;;8.90;;
70049;SDS011;57391;51.306;22.680;2022-10-26T03:28:35;14.90;;;8.90;;
70049;SDS011;57391;51.306;22.680;2022-10-26T03:31:03;13.10;;;8.70;;
70049;SDS011;57391;51.306;22.680;2022-10-26T03:33:30;14.40;;;9.10;;
70049;SDS011;57391;51.306;22.680;2022-10-26T03:35:57;14.60;;;9.90;;
70049;SDS011;57391;51.306;22.680;2022-10-26T03:38:24;19.30;;;9.80;;
70049;SDS011;57391;51.306;22.680;2022-10-26T03:40:51;19.00;;;9.70;;
70049;SDS011;57391;51.306;22.680;2022-10-26T03:43:18;18.40;;;10.20;;
70049;SDS011;57391;51.306;22.680;2022-10-26T03:45:46;17.30;;;10.30;;
70049;SDS011;57391;51.306;22.680;2022-10-26T03:48:13;16.40;;;10.20;;
70049;SDS011;57391;51.306;22.680;2022-10-26T03:50:40;17.80;;;10.20;;
70049;SDS011;57391;51.306;22.680;2022-10-26T03:53:08;18.30;;;10.10;;
70049;SDS011;57391;51.306;22.680;2022-10-26T03:55:35;23.10;;;11.30;;
70049;SDS011;57391;51.306;22.680;2022-10-26T03:58:03;19.90;;;11.10;;
70049;SDS011;57391;51.306;22.680;2022-10-26T04:00:30;19.90;;;11.10;;
70049;SDS011;57391;51.306;22.680;2022-10-26T04:02:58;18.10;;;10.00;;
70049;SDS011;57391;51.306;22.680;2022-10-26T04:05:28;19.90;;;10.70;;
70049;SDS011;57391;51.306;22.680;2022-10-26T04:08:00;17.30;;;10.00;;
70049;SDS011;57391;51.306;22.680;2022-10-26T04:10:31;16.20;;;9.40;;
70049;SDS011;57391;51.306;22.680;2022-10-26T04:12:58;17.60;;;9.60;;
70049;SDS011;57391;51.306;22.680;2022-10-26T04:15:27;17.70;;;10.40;;
70049;SDS011;57391;51.306;22.680;2022-10-26T04:17:58;15.70;;;9.60;;
70049;SDS011;57391;51.306;22.680;2022-10-26T04:20:28;16.30;;;9.10;;
70049;SDS011;57391;51.306;22.680;2022-10-26T04:23:02;19.20;;;9.80;;
70049;SDS011;57391;51.306;22.680;2022-10-26T04:25:32;15.60;;;9.40;;
70049;SDS011;57391;51.306;22.680;2022-10-26T04:28:00;14.60;;;9.20;;
70049;SDS011;57391;51.306;22.680;2022-10-26T04:30:29;16.60;;;9.20;;
70049;SDS011;57391;51.306;22.680;2022-10-26T04:32:57;15.80;;;9.40;;
70049;SDS011;57391;51.306;22.680;2022-10-26T04:35:24;16.40;;;9.40;;
70049;SDS011;57391;51.306;22.680;2022-10-26T04:37:57;14.70;;;8.60;;
70049;SDS011;57391;51.306;22.680;2022-10-26T04:40:27;13.80;;;8.80;;
70049;SDS011;57391;51.306;22.680;2022-10-26T04:42:55;13.90;;;8.90;;
70049;SDS011;57391;51.306;22.680;2022-10-26T04:45:22;15.20;;;9.00;;
70049;SDS011;57391;51.306;22.680;2022-10-26T04:48:06;17.20;;;8.90;;
70049;SDS011;57391;51.306;22.680;2022-10-26T04:50:37;16.70;;;9.30;;
70049;SDS011;57391;51.306;22.680;2022-10-26T04:53:06;20.40;;;9.30;;
70049;SDS011;57391;51.306;22.680;2022-10-26T04:55:35;18.90;;;9.20;;
70049;SDS011;57391;51.306;22.680;2022-10-26T04:58:04;19.20;;;10.40;;
70049;SDS011;57391;51.306;22.680;2022-10-26T05:00:32;17.50;;;9.50;;
70049;SDS011;57391;51.306;22.680;2022-10-26T05:03:02;19.20;;;10.40;;
70049;SDS011;57391;51.306;22.680;2022-10-26T05:05:32;17.80;;;10.30;;
70049;SDS011;57391;51.306;22.680;2022-10-26T05:08:01;18.20;;;10.20;;
70049;SDS011;57391;51.306;22.680;2022-10-26T05:10:29;18.80;;;8.90;;
70049;SDS011;57391;51.306;22.680;2022-10-26T05:12:58;15.70;;;8.90;;
70049;SDS011;57391;51.306;22.680;2022-10-26T05:15:26;18.40;;;8.70;;
70049;SDS011;57391;51.306;22.680;2022-10-26T05:17:56;13.50;;;7.80;;
70049;SDS011;57391;51.306;22.680;2022-10-26T05:20:26;15.90;;;9.10;;
70049;SDS011;57391;51.306;22.680;2022-10-26T05:22:58;16.00;;;8.50;;
70049;SDS011;57391;51.306;22.680;2022-10-26T05:25:29;18.00;;;9.40;;
70049;SDS011;57391;51.306;22.680;2022-10-26T05:28:02;18.00;;;8.70;;
70049;SDS011;57391;51.306;22.680;2022-10-26T05:30:35;18.90;;;8.80;;
70049;SDS011;57391;51.306;22.680;2022-10-26T05:33:02;16.70;;;9.50;;
70049;SDS011;57391;51.306;22.680;2022-10-26T05:35:31;19.00;;;10.10;;
70049;SDS011;57391;51.306;22.680;2022-10-26T05:37:58;16.00;;;8.90;;
70049;SDS011;57391;51.306;22.680;2022-10-26T05:40:26;17.50;;;9.80;;
70049;SDS011;57391;51.306;22.680;2022-10-26T05:42:58;20.10;;;9.70;;
70049;SDS011;57391;51.306;22.680;2022-10-26T05:45:29;16.90;;;9.70;;
70049;SDS011;57391;51.306;22.680;2022-10-26T05:47:56;18.60;;;10.20;;
70049;SDS011;57391;51.306;22.680;2022-10-26T05:50:23;19.20;;;10.30;;
70049;SDS011;57391;51.306;22.680;2022-10-26T05:52:50;18.20;;;10.50;;
70049;SDS011;57391;51.306;22.680;2022-10-26T05:55:17;22.60;;;12.10;;
70049;SDS011;57391;51.306;22.680;2022-10-26T05:57:45;24.20;;;11.10;;
70049;SDS011;57391;51.306;22.680;2022-10-26T06:00:19;20.90;;;11.20;;
70049;SDS011;57391;51.306;22.680;2022-10-26T06:03:19;20.90;;;10.60;;
70049;SDS011;57391;51.306;22.680;2022-10-26T06:06:06;23.40;;;11.10;;
70049;SDS011;57391;51.306;22.680;2022-10-26T06:08:37;31.00;;;13.30;;
70049;SDS011;57391;51.306;22.680;2022-10-26T06:11:04;28.20;;;13.30;;
70049;SDS011;57391;51.306;22.680;2022-10-26T06:13:33;27.50;;;13.70;;
70049;SDS011;57391;51.306;22.680;2022-10-26T06:25:23;35.60;;;15.20;;
70049;SDS011;57391;51.306;22.680;2022-10-26T06:31:15;34.10;;;15.00;;
70049;SDS011;57391;51.306;22.680;2022-10-26T06:33:43;36.00;;;15.80;;
70049;SDS011;57391;51.306;22.680;2022-10-26T06:36:23;38.70;;;16.60;;
70049;SDS011;57391;51.306;22.680;2022-10-26T06:39:02;36.20;;;16.50;;
70049;SDS011;57391;51.306;22.680;2022-10-26T06:41:32;37.80;;;16.20;;
70049;SDS011;57391;51.306;22.680;2022-10-26T06:44:01;44.70;;;17.80;;
70049;SDS011;57391;51.306;22.680;2022-10-26T06:46:47;35.40;;;16.60;;
70049;SDS011;57391;51.306;22.680;2022-10-26T06:49:40;37.50;;;16.10;;
70049;SDS011;57391;51.306;22.680;2022-10-26T06:52:37;36.70;;;17.00;;
70049;SDS011;57391;51.306;22.680;2022-10-26T06:55:13;36.80;;;15.70;;
70049;SDS011;57391;51.306;22.680;2022-10-26T06:57:42;36.20;;;16.90;;
70049;SDS011;57391;51.306;22.680;2022-10-26T07:02:44;30.60;;;15.00;;
70049;SDS011;57391;51.306;22.680;2022-10-26T07:05:12;31.50;;;14.70;;
70049;SDS011;57391;51.306;22.680;2022-10-26T07:07:45;32.60;;;14.40;;
70049;SDS011;57391;51.306;22.680;2022-10-26T07:10:14;30.00;;;14.00;;
70049;SDS011;57391;51.306;22.680;2022-10-26T07:12:41;27.70;;;13.50;;
70049;SDS011;57391;51.306;22.680;2022-10-26T07:15:09;29.90;;;14.30;;
70049;SDS011;57391;51.306;22.680;2022-10-26T07:20:11;28.10;;;13.60;;
70049;SDS011;57391;51.306;22.680;2022-10-26T07:22:38;29.60;;;14.40;;
70049;SDS011;57391;51.306;22.680;2022-10-26T07:25:07;30.60;;;14.60;;
70049;SDS011;57391;51.306;22.680;2022-10-26T07:27:35;27.30;;;13.30;;
70049;SDS011;57391;51.306;22.680;2022-10-26T07:30:03;25.20;;;13.50;;
70049;SDS011;57391;51.306;22.680;2022-10-26T07:32:31;27.80;;;13.20;;
70049;SDS011;57391;51.306;22.680;2022-10-26T07:34:58;32.70;;;16.00;;
70049;SDS011;57391;51.306;22.680;2022-10-26T07:37:26;29.00;;;14.00;;
70049;SDS011;57391;51.306;22.680;2022-10-26T07:39:53;28.00;;;13.80;;
70049;SDS011;57391;51.306;22.680;2022-10-26T07:42:21;26.60;;;14.00;;
70049;SDS011;57391;51.306;22.680;2022-10-26T07:44:48;29.10;;;15.00;;
70049;SDS011;57391;51.306;22.680;2022-10-26T07:47:16;27.80;;;14.40;;
70049;SDS011;57391;51.306;22.680;2022-10-26T07:49:43;27.80;;;14.50;;
70049;SDS011;57391;51.306;22.680;2022-10-26T07:52:10;29.80;;;16.10;;
70049;SDS011;57391;51.306;22.680;2022-10-26T07:54:37;31.30;;;16.60;;
70049;SDS011;57391;51.306;22.680;2022-10-26T07:57:05;39.30;;;18.00;;
70049;SDS011;57391;51.306;22.680;2022-10-26T07:59:32;35.30;;;17.80;;
70049;SDS011;57391;51.306;22.680;2022-10-26T08:01:59;34.30;;;17.50;;
70049;SDS011;57391;51.306;22.680;2022-10-26T08:04:26;34.00;;;16.90;;
70049;SDS011;57391;51.306;22.680;2022-10-26T08:06:54;32.50;;;16.30;;
70049;SDS011;57391;51.306;22.680;2022-10-26T08:09:22;29.40;;;15.90;;
70049;SDS011;57391;51.306;22.680;2022-10-26T08:11:48;27.60;;;14.80;;
70049;SDS011;57391;51.306;22.680;2022-10-26T08:14:15;29.20;;;15.10;;
70049;SDS011;57391;51.306;22.680;2022-10-26T08:16:42;29.00;;;14.50;;
70049;SDS011;57391;51.306;22.680;2022-10-26T08:19:10;29.10;;;15.60;;
70049;SDS011;57391;51.306;22.680;2022-10-26T08:21:37;27.10;;;15.20;;
70049;SDS011;57391;51.306;22.680;2022-10-26T08:24:04;29.00;;;15.40;;
70049;SDS011;57391;51.306;22.680;2022-10-26T08:26:32;28.60;;;14.50;;
70049;SDS011;57391;51.306;22.680;2022-10-26T08:29:00;28.80;;;15.90;;
70049;SDS011;57391;51.306;22.680;2022-10-26T08:31:27;31.50;;;16.00;;
70049;SDS011;57391;51.306;22.680;2022-10-26T08:33:54;28.00;;;15.40;;
70049;SDS011;57391;51.306;22.680;2022-10-26T08:36:23;29.00;;;15.10;;
70049;SDS011;57391;51.306;22.680;2022-10-26T08:38:51;21.70;;;13.40;;
70049;SDS011;57391;51.306;22.680;2022-10-26T08:41:23;21.40;;;12.80;;
70049;SDS011;57391;51.306;22.680;2022-10-26T08:44:15;27.10;;;13.50;;
70049;SDS011;57391;51.306;22.680;2022-10-26T08:47:21;26.10;;;14.50;;
70049;SDS011;57391;51.306;22.680;2022-10-26T08:52:55;23.20;;;13.20;;
70049;SDS011;57391;51.306;22.680;2022-10-26T08:55:43;27.90;;;13.20;;
70049;SDS011;57391;51.306;22.680;2022-10-26T08:58:17;23.10;;;12.70;;
70049;SDS011;57391;51.306;22.680;2022-10-26T09:00:48;19.90;;;10.80;;
70049;SDS011;57391;51.306;22.680;2022-10-26T09:03:18;23.60;;;12.80;;
70049;SDS011;57391;51.306;22.680;2022-10-26T09:05:57;22.30;;;13.20;;
70049;SDS011;57391;51.306;22.680;2022-10-26T09:14:16;19.70;;;12.50;;
70049;SDS011;57391;51.306;22.680;2022-10-26T09:25:22;19.70;;;11.10;;
70049;SDS011;57391;51.306;22.680;2022-10-26T09:27:56;17.60;;;11.30;;
70049;SDS011;57391;51.306;22.680;2022-10-26T09:30:27;18.30;;;10.30;;
70049;SDS011;57391;51.306;22.680;2022-10-26T09:33:03;18.50;;;10.70;;
70049;SDS011;57391;51.306;22.680;2022-10-26T09:35:54;16.30;;;10.10;;
70049;SDS011;57391;51.306;22.680;2022-10-26T09:41:37;16.30;;;10.10;;
70049;SDS011;57391;51.306;22.680;2022-10-26T09:47:32;17.20;;;10.40;;
70049;SDS011;57391;51.306;22.680;2022-10-26T09:52:56;15.70;;;9.50;;
70049;SDS011;57391;51.306;22.680;2022-10-26T09:55:24;16.50;;;9.30;;
70049;SDS011;57391;51.306;22.680;2022-10-26T09:57:56;15.20;;;8.80;;
70049;SDS011;57391;51.306;22.680;2022-10-26T10:00:28;13.30;;;8.10;;
70049;SDS011;57391;51.306;22.680;2022-10-26T10:02:57;13.40;;;7.90;;
70049;SDS011;57391;51.306;22.680;2022-10-26T10:05:33;15.00;;;7.90;;
70049;SDS011;57391;51.306;22.680;2022-10-26T10:10:53;14.40;;;7.60;;
70049;SDS011;57391;51.306;22.680;2022-10-26T10:13:27;12.60;;;7.10;;
70049;SDS011;57391;51.306;22.680;2022-10-26T10:18:30;14.00;;;7.40;;
70049;SDS011;57391;51.306;22.680;2022-10-26T10:20:59;15.90;;;7.50;;
70049;SDS011;57391;51.306;22.680;2022-10-26T10:23:30;15.50;;;8.20;;
70049;SDS011;57391;51.306;22.680;2022-10-26T10:26:09;16.00;;;8.40;;
70049;SDS011;57391;51.306;22.680;2022-10-26T10:28:39;13.50;;;7.30;;
70049;SDS011;57391;51.306;22.680;2022-10-26T10:31:22;13.00;;;7.40;;
70049;SDS011;57391;51.306;22.680;2022-10-26T10:33:57;16.10;;;7.80;;
70049;SDS011;57391;51.306;22.680;2022-10-26T10:36:28;16.40;;;7.60;;
70049;SDS011;57391;51.306;22.680;2022-10-26T10:38:56;14.20;;;7.80;;
70049;SDS011;57391;51.306;22.680;2022-10-26T10:41:30;14.20;;;7.80;;
70049;SDS011;57391;51.306;22.680;2022-10-26T10:44:26;14.10;;;7.70;;
70049;SDS011;57391;51.306;22.680;2022-10-26T10:47:03;13.80;;;7.30;;
70049;SDS011;57391;51.306;22.680;2022-10-26T10:49:32;17.80;;;8.10;;
70049;SDS011;57391;51.306;22.680;2022-10-26T10:51:59;15.40;;;8.10;;
70049;SDS011;57391;51.306;22.680;2022-10-26T10:54:35;15.30;;;8.30;;
70049;SDS011;57391;51.306;22.680;2022-10-26T11:00:07;13.60;;;8.00;;
70049;SDS011;57391;51.306;22.680;2022-10-26T11:06:11;19.70;;;9.60;;
70049;SDS011;57391;51.306;22.680;2022-10-26T11:14:30;18.30;;;9.10;;
70049;SDS011;57391;51.306;22.680;2022-10-26T11:17:15;17.80;;;8.60;;
70049;SDS011;57391;51.306;22.680;2022-10-26T11:22:32;14.80;;;8.10;;
70049;SDS011;57391;51.306;22.680;2022-10-26T11:25:17;13.80;;;6.80;;
70049;SDS011;57391;51.306;22.680;2022-10-26T11:28:13;13.80;;;6.50;;
70049;SDS011;57391;51.306;22.680;2022-10-26T11:30:51;15.10;;;7.10;;
70049;SDS011;57391;51.306;22.680;2022-10-26T11:33:29;12.80;;;6.00;;
70049;SDS011;57391;51.306;22.680;2022-10-26T11:36:08;14.50;;;6.50;;
70049;SDS011;57391;51.306;22.680;2022-10-26T11:38:54;12.40;;;6.70;;
70049;SDS011;57391;51.306;22.680;2022-10-26T11:41:55;13.50;;;6.70;;
70049;SDS011;57391;51.306;22.680;2022-10-26T11:44:48;16.90;;;7.20;;
70049;SDS011;57391;51.306;22.680;2022-10-26T11:47:48;16.30;;;7.00;;
70049;SDS011;57391;51.306;22.680;2022-10-26T11:50:32;13.20;;;6.60;;
70049;SDS011;57391;51.306;22.680;2022-10-26T11:55:41;12.10;;;5.60;;
70049;SDS011;57391;51.306;22.680;2022-10-26T11:58:15;14.40;;;6.40;;
70049;SDS011;57391;51.306;22.680;2022-10-26T12:00:50;10.50;;;5.80;;
70049;SDS011;57391;51.306;22.680;2022-10-26T12:03:31;11.00;;;6.40;;
70049;SDS011;57391;51.306;22.680;2022-10-26T12:06:01;13.30;;;6.20;;
70049;SDS011;57391;51.306;22.680;2022-10-26T12:08:40;13.60;;;6.20;;
70049;SDS011;57391;51.306;22.680;2022-10-26T12:14:28;12.70;;;7.40;;
70049;SDS011;57391;51.306;22.680;2022-10-26T12:17:21;16.40;;;8.60;;
70049;SDS011;57391;51.306;22.680;2022-10-26T12:20:26;16.00;;;9.00;;
70049;SDS011;57391;51.306;22.680;2022-10-26T12:23:14;14.80;;;8.30;;
70049;SDS011;57391;51.306;22.680;2022-10-26T12:25:42;17.00;;;9.40;;
70049;SDS011;57391;51.306;22.680;2022-10-26T12:28:38;15.60;;;8.70;;
70049;SDS011;57391;51.306;22.680;2022-10-26T12:33:58;16.30;;;8.60;;
70049;SDS011;57391;51.306;22.680;2022-10-26T12:39:40;15.30;;;8.50;;
70049;SDS011;57391;51.306;22.680;2022-10-26T12:52:48;14.80;;;8.60;;
70049;SDS011;57391;51.306;22.680;2022-10-26T12:58:42;13.70;;;8.00;;
70049;SDS011;57391;51.306;22.680;2022-10-26T13:04:17;17.00;;;8.90;;
70049;SDS011;57391;51.306;22.680;2022-10-26T13:07:21;18.10;;;9.50;;
70049;SDS011;57391;51.306;22.680;2022-10-26T13:09:55;15.10;;;8.10;;
70049;SDS011;57391;51.306;22.680;2022-10-26T13:12:29;16.60;;;9.20;;
70049;SDS011;57391;51.306;22.680;2022-10-26T13:15:18;17.60;;;9.20;;
70049;SDS011;57391;51.306;22.680;2022-10-26T13:18:15;16.40;;;9.80;;
70049;SDS011;57391;51.306;22.680;2022-10-26T13:23:39;14.70;;;9.10;;
70049;SDS011;57391;51.306;22.680;2022-10-26T13:26:18;13.90;;;8.80;;
70049;SDS011;57391;51.306;22.680;2022-10-26T13:28:54;16.50;;;9.30;;
70049;SDS011;57391;51.306;22.680;2022-10-26T13:36:44;16.70;;;10.00;;
70049;SDS011;57391;51.306;22.680;2022-10-26T13:39:21;16.60;;;9.30;;
70049;SDS011;57391;51.306;22.680;2022-10-26T13:41:53;17.80;;;10.30;;
70049;SDS011;57391;51.306;22.680;2022-10-26T13:44:41;15.60;;;9.60;;
70049;SDS011;57391;51.306;22.680;2022-10-26T13:47:24;17.90;;;10.80;;
70049;SDS011;57391;51.306;22.680;2022-10-26T13:50:06;17.30;;;10.80;;
70049;SDS011;57391;51.306;22.680;2022-10-26T13:52:43;15.60;;;9.80;;
70049;SDS011;57391;51.306;22.680;2022-10-26T13:55:47;16.30;;;9.80;;
70049;SDS011;57391;51.306;22.680;2022-10-26T14:03:36;16.60;;;10.10;;
70049;SDS011;57391;51.306;22.680;2022-10-26T14:06:18;20.20;;;11.10;;
70049;SDS011;57391;51.306;22.680;2022-10-26T14:08:49;19.70;;;11.80;;
70049;SDS011;57391;51.306;22.680;2022-10-26T14:11:21;22.00;;;12.60;;
70049;SDS011;57391;51.306;22.680;2022-10-26T14:13:57;22.90;;;11.80;;
70049;SDS011;57391;51.306;22.680;2022-10-26T14:16:28;18.70;;;11.20;;
70049;SDS011;57391;51.306;22.680;2022-10-26T14:18:57;17.90;;;9.80;;
70049;SDS011;57391;51.306;22.680;2022-10-26T14:21:25;17.00;;;9.90;;
70049;SDS011;57391;51.306;22.680;2022-10-26T14:23:55;17.00;;;10.40;;
70049;SDS011;57391;51.306;22.680;2022-10-26T14:26:50;17.10;;;9.40;;
70049;SDS011;57391;51.306;22.680;2022-10-26T14:29:18;17.90;;;9.90;;
70049;SDS011;57391;51.306;22.680;2022-10-26T14:31:47;16.90;;;9.30;;
70049;SDS011;57391;51.306;22.680;2022-10-26T14:34:16;17.30;;;9.70;;
70049;SDS011;57391;51.306;22.680;2022-10-26T14:39:37;22.40;;;12.90;;
70049;SDS011;57391;51.306;22.680;2022-10-26T14:42:24;26.50;;;14.90;;
70049;SDS011;57391;51.306;22.680;2022-10-26T14:44:57;17.50;;;10.30;;
70049;SDS011;57391;51.306;22.680;2022-10-26T14:47:29;18.10;;;9.90;;
70049;SDS011;57391;51.306;22.680;2022-10-26T14:49:59;16.30;;;9.10;;
70049;SDS011;57391;51.306;22.680;2022-10-26T14:52:34;15.60;;;8.30;;
70049;SDS011;57391;51.306;22.680;2022-10-26T14:57:39;14.30;;;8.20;;
70049;SDS011;57391;51.306;22.680;2022-10-26T15:02:54;36.00;;;15.80;;
70049;SDS011;57391;51.306;22.680;2022-10-26T15:07:51;81.90;;;35.30;;
70049;SDS011;57391;51.306;22.680;2022-10-26T15:13:30;133.00;;;61.00;;
70049;SDS011;57391;51.306;22.680;2022-10-26T15:16:18;111.90;;;55.40;;
70049;SDS011;57391;51.306;22.680;2022-10-26T15:18:52;58.70;;;34.50;;
70049;SDS011;57391;51.306;22.680;2022-10-26T15:21:24;38.70;;;27.40;;
70049;SDS011;57391;51.306;22.680;2022-10-26T15:23:57;38.10;;;25.70;;
70049;SDS011;57391;51.306;22.680;2022-10-26T15:26:27;32.80;;;19.70;;
70049;SDS011;57391;51.306;22.680;2022-10-26T15:28:55;21.90;;;11.50;;
70049;SDS011;57391;51.306;22.680;2022-10-26T15:31:31;15.90;;;9.90;;
70049;SDS011;57391;51.306;22.680;2022-10-26T15:36:28;18.40;;;10.60;;
70049;SDS011;57391;51.306;22.680;2022-10-26T15:38:58;15.00;;;9.10;;
70049;SDS011;57391;51.306;22.680;2022-10-26T15:41:30;13.00;;;7.70;;
70049;SDS011;57391;51.306;22.680;2022-10-26T15:44:02;14.40;;;8.60;;
70049;SDS011;57391;51.306;22.680;2022-10-26T15:46:35;13.60;;;8.90;;
70049;SDS011;57391;51.306;22.680;2022-10-26T15:49:06;15.50;;;8.60;;
70049;SDS011;57391;51.306;22.680;2022-10-26T15:51:40;14.10;;;8.60;;
70049;SDS011;57391;51.306;22.680;2022-10-26T15:54:08;14.50;;;9.00;;
70049;SDS011;57391;51.306;22.680;2022-10-26T15:56:35;16.30;;;9.40;;
70049;SDS011;57391;51.306;22.680;2022-10-26T15:59:16;17.60;;;9.40;;
70049;SDS011;57391;51.306;22.680;2022-10-26T16:01:45;18.40;;;10.70;;
70049;SDS011;57391;51.306;22.680;2022-10-26T16:04:12;16.90;;;9.80;;
70049;SDS011;57391;51.306;22.680;2022-10-26T16:06:40;18.50;;;10.10;;
70049;SDS011;57391;51.306;22.680;2022-10-26T16:09:16;17.20;;;10.30;;
70049;SDS011;57391;51.306;22.680;2022-10-26T16:11:44;18.80;;;10.70;;
70049;SDS011;57391;51.306;22.680;2022-10-26T16:14:11;20.30;;;12.20;;
70049;SDS011;57391;51.306;22.680;2022-10-26T16:16:38;19.50;;;12.60;;
70049;SDS011;57391;51.306;22.680;2022-10-26T16:19:09;28.20;;;17.00;;
70049;SDS011;57391;51.306;22.680;2022-10-26T16:21:37;25.20;;;15.50;;
70049;SDS011;57391;51.306;22.680;2022-10-26T16:24:04;24.20;;;13.20;;
70049;SDS011;57391;51.306;22.680;2022-10-26T16:26:32;23.30;;;13.90;;
70049;SDS011;57391;51.306;22.680;2022-10-26T16:28:59;26.20;;;14.30;;
70049;SDS011;57391;51.306;22.680;2022-10-26T16:31:27;22.40;;;13.30;;
70049;SDS011;57391;51.306;22.680;2022-10-26T16:33:54;28.20;;;14.10;;
70049;SDS011;57391;51.306;22.680;2022-10-26T16:36:22;23.70;;;14.20;;
70049;SDS011;57391;51.306;22.680;2022-10-26T16:38:49;34.10;;;17.80;;
70049;SDS011;57391;51.306;22.680;2022-10-26T16:41:16;34.90;;;20.70;;
70049;SDS011;57391;51.306;22.680;2022-10-26T16:43:44;43.20;;;22.50;;
70049;SDS011;57391;51.306;22.680;2022-10-26T16:46:15;34.70;;;19.20;;
70049;SDS011;57391;51.306;22.680;2022-10-26T16:48:45;35.60;;;22.20;;
70049;SDS011;57391;51.306;22.680;2022-10-26T16:51:22;31.80;;;18.70;;
70049;SDS011;57391;51.306;22.680;2022-10-26T16:53:53;29.00;;;17.70;;
70049;SDS011;57391;51.306;22.680;2022-10-26T16:56:27;33.80;;;18.80;;
70049;SDS011;57391;51.306;22.680;2022-10-26T16:58:55;31.00;;;18.00;;
70049;SDS011;57391;51.306;22.680;2022-10-26T17:01:24;34.10;;;19.10;;
70049;SDS011;57391;51.306;22.680;2022-10-26T17:03:52;43.50;;;22.50;;
70049;SDS011;57391;51.306;22.680;2022-10-26T17:06:20;52.40;;;27.90;;
70049;SDS011;57391;51.306;22.680;2022-10-26T17:08:47;54.50;;;30.40;;
70049;SDS011;57391;51.306;22.680;2022-10-26T17:11:18;54.00;;;28.30;;
70049;SDS011;57391;51.306;22.680;2022-10-26T17:13:51;58.50;;;32.20;;
70049;SDS011;57391;51.306;22.680;2022-10-26T17:16:21;59.40;;;33.00;;
70049;SDS011;57391;51.306;22.680;2022-10-26T17:18:50;47.50;;;27.30;;
70049;SDS011;57391;51.306;22.680;2022-10-26T17:21:27;34.20;;;19.20;;
70049;SDS011;57391;51.306;22.680;2022-10-26T17:23:56;34.00;;;18.40;;
70049;SDS011;57391;51.306;22.680;2022-10-26T17:26:24;37.90;;;21.10;;